Warrenton, Virginia
Current Conditions -  °F | °C
As of 8:55 AM on Thursday 23 Oct 2014 (Local Time) from KHWY Reporting Station
Overcast Overcast  
Wind Chill: 55°   Ceiling: 7000
Heat Index: 55°   Visibility: 10mi
Dew Point: 47°   Wind: 14mph
Humidity: 77%   Direction: 310°NW
Pressure: 29.95"   Gusts: 18mph
Location:  38.72°N, 77.8°W
Report Text: KHWY 231255Z AUTO 31012G16KT 10SM OVC070 13/09 A2995 RMK AO2 T01260086
Loading
Personal Weather Stations






























Interactive Weather Map
Tropical Storm Tracking
New forecast layout! Learn more

10-Day Weather Forecast

Advertisements
Track Severe Weather on mobile